Time;durP1;ratioP1;P1;durP2;ratioP2;P2;SDS_P1;SDS_P2;PMS_P1;PMS_P2;Temp;Humidity;BMP_temperature;BMP_pressure;BME280_temperature;BME280_humidity;BME280_pressure;Samples;Min_cycle;Max_cycle;Signal;HPM_P1;HPM_P2
2023/08/07 00:00:45;;;;;;;9.30;6.87;;;15.20;99.90;;;;;;5035266;28;20467;-62
2023/08/07 00:03:18;;;;;;;9.73;7.40;;;15.30;99.90;;;;;;5033384;28;20833;-59
2023/08/07 00:05:45;;;;;;;7.83;6.93;;;15.30;99.90;;;;;;5033142;28;20789;-60
2023/08/07 00:08:12;;;;;;;9.37;6.73;;;15.30;99.90;;;;;;5033556;28;20532;-60
2023/08/07 00:10:41;;;;;;;6.40;5.70;;;15.30;99.90;;;;;;5032896;28;20469;-60
2023/08/07 00:13:07;;;;;;;7.47;6.77;;;15.30;99.90;;;;;;5032904;28;20938;-60
2023/08/07 00:15:34;;;;;;;8.23;7.53;;;15.30;99.90;;;;;;5033578;28;20816;-61
2023/08/07 00:18:01;;;;;;;8.77;7.60;;;15.40;99.90;;;;;;5033285;28;20920;-61
2023/08/07 00:20:28;;;;;;;8.20;7.10;;;15.40;99.90;;;;;;5032870;28;20926;-61
2023/08/07 00:22:55;;;;;;;8.73;7.83;;;15.40;99.90;;;;;;5033085;28;20454;-60
2023/08/07 00:25:21;;;;;;;8.60;6.57;;;15.40;99.90;;;;;;5033051;28;20451;-60
2023/08/07 00:27:50;;;;;;;8.63;7.37;;;15.40;99.90;;;;;;5035566;28;20436;-60
2023/08/07 00:30:16;;;;;;;8.37;7.57;;;15.40;99.90;;;;;;5036719;28;20465;-60
2023/08/07 00:32:43;;;;;;;10.47;8.20;;;15.40;99.90;;;;;;5037431;28;20459;-60
2023/08/07 00:35:10;;;;;;;10.40;7.00;;;15.30;99.90;;;;;;5037468;28;20451;-60
2023/08/07 00:37:38;;;;;;;8.57;7.77;;;15.20;99.90;;;;;;5037007;28;20488;-60
2023/08/07 00:40:05;;;;;;;8.73;7.40;;;15.20;99.90;;;;;;5037113;28;20461;-61
2023/08/07 00:42:32;;;;;;;7.37;6.50;;;15.10;99.90;;;;;;5037036;28;20448;-61
2023/08/07 00:45:01;;;;;;;9.13;8.20;;;15.00;99.90;;;;;;5037862;28;20447;-62
2023/08/07 00:47:28;;;;;;;11.17;9.07;;;15.00;99.90;;;;;;5036835;28;20896;-61
2023/08/07 00:49:54;;;;;;;10.60;9.50;;;14.90;99.90;;;;;;5036987;28;20556;-60
2023/08/07 00:52:21;;;;;;;10.20;8.73;;;14.90;99.90;;;;;;5036952;28;20447;-60
2023/08/07 00:54:48;;;;;;;9.63;8.63;;;14.90;99.90;;;;;;5036664;28;20535;-60
2023/08/07 00:57:16;;;;;;;10.07;9.00;;;14.90;99.90;;;;;;5036621;28;20476;-61
2023/08/07 00:59:44;;;;;;;15.43;10.73;;;14.90;99.90;;;;;;5036335;28;20460;-62
2023/08/07 01:02:13;;;;;;;10.97;9.70;;;14.90;99.90;;;;;;5036681;28;20445;-62
2023/08/07 01:04:40;;;;;;;14.60;10.50;;;14.90;99.90;;;;;;5036261;28;20437;-59
2023/08/07 01:07:07;;;;;;;15.47;11.83;;;14.90;99.90;;;;;;5036158;28;20441;-62
2023/08/07 01:09:34;;;;;;;11.20;10.00;;;14.90;99.90;;;;;;5036397;28;20457;-62
2023/08/07 01:12:14;;;;;;;16.33;11.00;;;14.90;99.90;;;;;;5036564;28;20444;-60
2023/08/07 01:14:50;;;;;;;12.90;11.50;;;14.80;99.90;;;;;;5035809;28;20431;-62
2023/08/07 01:17:22;;;;;;;13.20;11.47;;;14.80;99.90;;;;;;5036535;28;20474;-61
2023/08/07 01:19:52;;;;;;;15.07;10.80;;;14.80;99.90;;;;;;5035715;28;20491;-60
2023/08/07 01:22:21;;;;;;;15.63;11.80;;;14.80;99.90;;;;;;5035842;28;20482;-61
2023/08/07 01:24:48;;;;;;;13.53;11.70;;;14.80;99.90;;;;;;5035487;28;20953;-60
2023/08/07 01:27:26;;;;;;;13.30;11.40;;;14.70;99.90;;;;;;5035666;28;20960;-60
2023/08/07 01:30:00;;;;;;;13.70;11.50;;;14.70;99.90;;;;;;5035706;28;20463;-62
2023/08/07 01:32:35;;;;;;;15.37;12.17;;;14.70;99.90;;;;;;5035536;28;20417;-61
2023/08/07 01:35:03;;;;;;;15.20;12.43;;;14.70;99.90;;;;;;5036147;28;20498;-61
2023/08/07 01:37:32;;;;;;;14.63;11.73;;;14.60;99.90;;;;;;5035650;28;20480;-61
2023/08/07 01:40:03;;;;;;;15.00;12.63;;;14.60;99.90;;;;;;5034862;28;20467;-61
2023/08/07 01:42:32;;;;;;;16.47;12.57;;;14.50;99.90;;;;;;5035692;28;20433;-60
2023/08/07 01:44:58;;;;;;;14.77;13.03;;;14.50;99.90;;;;;;5035449;28;20451;-60
2023/08/07 01:47:25;;;;;;;18.33;13.43;;;14.50;99.90;;;;;;5035196;28;20445;-60
2023/08/07 01:49:52;;;;;;;14.70;12.80;;;14.40;99.90;;;;;;5035404;28;20467;-61
2023/08/07 01:52:19;;;;;;;14.93;12.70;;;14.40;99.90;;;;;;5035397;28;20878;-61
2023/08/07 01:54:48;;;;;;;16.17;13.93;;;14.40;99.90;;;;;;5035840;28;20487;-60
2023/08/07 01:57:15;;;;;;;16.83;13.30;;;14.40;99.90;;;;;;5035220;28;20487;-61
2023/08/07 01:59:42;;;;;;;14.73;12.63;;;14.40;99.90;;;;;;5035191;28;20465;-61
2023/08/07 02:02:09;;;;;;;17.00;13.57;;;14.40;99.90;;;;;;5035257;28;20484;-60
2023/08/07 02:04:36;;;;;;;11.60;10.30;;;14.40;99.90;;;;;;5034747;28;20974;-61
2023/08/07 02:07:02;;;;;;;13.13;11.27;;;14.40;99.90;;;;;;5034712;28;20811;-60
2023/08/07 02:09:29;;;;;;;17.17;11.60;;;14.40;99.90;;;;;;5034896;28;20776;-62
2023/08/07 02:11:57;;;;;;;14.33;10.23;;;14.40;99.90;;;;;;5034697;28;20939;-60
2023/08/07 02:14:24;;;;;;;12.63;9.40;;;14.40;99.90;;;;;;5034949;28;20793;-61
2023/08/07 02:16:51;;;;;;;13.13;9.83;;;14.40;99.90;;;;;;5034779;28;20824;-60
2023/08/07 02:19:17;;;;;;;12.60;8.60;;;14.40;99.90;;;;;;5034429;28;20833;-61
2023/08/07 02:21:44;;;;;;;11.10;8.47;;;14.40;99.90;;;;;;5034748;28;20542;-61
2023/08/07 02:24:11;;;;;;;12.47;9.83;;;14.40;99.90;;;;;;5034452;28;20953;-61
2023/08/07 02:26:38;;;;;;;13.07;9.37;;;14.30;99.90;;;;;;5034540;28;20445;-62
2023/08/07 02:29:07;;;;;;;12.03;8.93;;;14.30;99.90;;;;;;5035327;28;21005;-60
2023/08/07 02:31:34;;;;;;;11.63;9.30;;;14.30;99.90;;;;;;5035287;28;20809;-60
2023/08/07 02:34:00;;;;;;;12.10;9.17;;;14.30;99.90;;;;;;5034986;28;20436;-61
2023/08/07 02:36:27;;;;;;;12.97;9.57;;;14.30;99.90;;;;;;5035703;28;20472;-61
2023/08/07 02:38:54;;;;;;;9.40;7.50;;;14.30;99.90;;;;;;5034501;28;20484;-60
2023/08/07 02:41:21;;;;;;;11.37;9.50;;;14.30;99.90;;;;;;5034569;28;20964;-61
2023/08/07 02:43:47;;;;;;;8.97;7.70;;;14.30;99.90;;;;;;5034601;28;20958;-61
2023/08/07 02:46:15;;;;;;;12.27;8.77;;;14.30;99.90;;;;;;5034412;28;20445;-61
2023/08/07 02:48:45;;;;;;;11.87;8.23;;;14.30;99.90;;;;;;5034311;28;20432;-61
2023/08/07 02:51:11;;;;;;;10.73;8.30;;;14.30;99.90;;;;;;5033347;28;20443;-60
2023/08/07 02:53:38;;;;;;;14.23;7.70;;;14.20;99.90;;;;;;5034405;28;20445;-60
2023/08/07 02:56:05;;;;;;;17.60;9.47;;;14.20;99.90;;;;;;5034565;28;20437;-59
2023/08/07 02:58:32;;;;;;;9.27;8.27;;;14.20;99.90;;;;;;5034113;28;20487;-60
2023/08/07 03:01:04;;;;;;;13.97;8.40;;;14.20;99.90;;;;;;5034386;28;20441;-60
2023/08/07 03:03:32;;;;;;;12.27;8.90;;;14.20;99.90;;;;;;5034369;28;20425;-59
2023/08/07 03:05:59;;;;;;;10.90;8.50;;;14.20;99.90;;;;;;5033968;28;21018;-59
2023/08/07 03:08:26;;;;;;;13.10;8.77;;;14.20;99.90;;;;;;5034407;28;20443;-59
2023/08/07 03:10:53;;;;;;;13.90;9.77;;;14.20;99.90;;;;;;5033619;28;20473;-59
2023/08/07 03:13:20;;;;;;;9.87;8.67;;;14.30;99.90;;;;;;5033930;28;20452;-61
2023/08/07 03:15:49;;;;;;;12.20;8.90;;;14.30;99.90;;;;;;5033695;28;20456;-60
2023/08/07 03:18:15;;;;;;;10.97;8.57;;;14.30;99.90;;;;;;5033545;28;21002;-60
2023/08/07 03:20:44;;;;;;;9.43;8.53;;;14.30;99.90;;;;;;5033628;28;20495;-60
2023/08/07 03:23:11;;;;;;;11.40;8.20;;;14.30;99.90;;;;;;5033787;28;20449;-60
2023/08/07 03:25:37;;;;;;;12.07;8.57;;;14.30;99.90;;;;;;5033526;28;20445;-60
2023/08/07 03:28:04;;;;;;;12.37;9.70;;;14.30;99.90;;;;;;5033480;28;20440;-60
2023/08/07 03:30:31;;;;;;;11.07;9.13;;;14.30;99.90;;;;;;5033534;28;20461;-59
2023/08/07 03:32:58;;;;;;;13.40;8.80;;;14.30;99.90;;;;;;5033771;28;20985;-60
2023/08/07 03:35:25;;;;;;;11.20;8.57;;;14.30;99.90;;;;;;5033785;28;20934;-60
2023/08/07 03:37:53;;;;;;;11.03;8.07;;;14.30;99.90;;;;;;5033222;28;20862;-61
2023/08/07 03:40:20;;;;;;;13.27;8.50;;;14.30;99.90;;;;;;5033522;28;20469;-60
2023/08/07 03:42:46;;;;;;;13.33;9.07;;;14.30;99.90;;;;;;5033312;28;20445;-60
2023/08/07 03:45:14;;;;;;;10.93;8.60;;;14.30;99.90;;;;;;5033190;28;20445;-59
2023/08/07 03:47:41;;;;;;;11.87;8.80;;;14.30;99.90;;;;;;5032879;28;20528;-59
2023/08/07 03:50:08;;;;;;;11.80;8.00;;;14.40;99.90;;;;;;5032873;28;21025;-59
2023/08/07 03:52:35;;;;;;;14.70;9.03;;;14.40;99.90;;;;;;5033298;28;20463;-59
2023/08/07 03:55:03;;;;;;;14.73;8.30;;;14.40;99.90;;;;;;5033067;28;20452;-59
2023/08/07 03:57:30;;;;;;;13.03;8.57;;;14.40;99.90;;;;;;5033053;28;20476;-59
2023/08/07 03:59:57;;;;;;;10.10;8.87;;;14.40;99.90;;;;;;5034228;28;20457;-60
2023/08/07 04:02:25;;;;;;;11.70;9.17;;;14.40;99.90;;;;;;5032661;28;20449;-60
2023/08/07 04:04:52;;;;;;;10.40;8.57;;;14.40;99.90;;;;;;5033130;28;21065;-59
2023/08/07 04:07:18;;;;;;;11.90;8.60;;;14.40;99.90;;;;;;5033047;28;20441;-60
2023/08/07 04:12:03;;;;;;;10.30;9.10;;;14.40;99.90;;;;;;5173406;27;20547;-60
2023/08/07 04:14:30;;;;;;;14.00;8.97;;;14.40;99.90;;;;;;5172853;27;20545;-61
2023/08/07 04:16:57;;;;;;;13.40;10.20;;;14.40;99.90;;;;;;5172946;27;20775;-62
2023/08/07 04:19:24;;;;;;;11.40;9.23;;;14.40;99.90;;;;;;5172431;27;20471;-59
2023/08/07 04:21:50;;;;;;;11.70;9.20;;;14.50;99.90;;;;;;5160205;22;20482;-70
2023/08/07 04:24:17;;;;;;;11.97;8.70;;;14.50;99.90;;;;;;5091718;28;20444;-68
2023/08/07 04:26:44;;;;;;;10.40;8.50;;;14.50;99.90;;;;;;5091440;28;20452;-68
2023/08/07 04:29:12;;;;;;;10.87;8.27;;;14.50;99.90;;;;;;5091149;28;20447;-68
2023/08/07 04:31:39;;;;;;;16.27;9.67;;;14.50;99.90;;;;;;5090378;28;20482;-68
2023/08/07 04:34:06;;;;;;;14.40;9.10;;;14.50;99.90;;;;;;5090492;28;20446;-67
2023/08/07 04:36:33;;;;;;;12.30;9.63;;;14.50;99.90;;;;;;5090921;28;20521;-68
2023/08/07 04:38:59;;;;;;;11.57;9.60;;;14.50;99.90;;;;;;5089965;28;20464;-68
2023/08/07 04:41:26;;;;;;;14.53;8.57;;;14.60;99.90;;;;;;5090053;28;20975;-67
2023/08/07 04:43:53;;;;;;;9.90;8.90;;;14.60;99.90;;;;;;5089922;28;20956;-67
2023/08/07 04:46:21;;;;;;;12.10;9.67;;;14.60;99.90;;;;;;5089961;28;20815;-67
2023/08/07 04:48:48;;;;;;;16.23;10.17;;;14.60;99.90;;;;;;5089953;28;20442;-67
2023/08/07 04:51:15;;;;;;;11.23;8.57;;;14.60;99.90;;;;;;5089403;28;20486;-68
2023/08/07 04:53:42;;;;;;;11.40;9.30;;;14.70;99.90;;;;;;5089861;28;20538;-68
2023/08/07 04:56:09;;;;;;;9.80;8.30;;;14.70;99.90;;;;;;5089085;28;20451;-68
2023/08/07 04:58:35;;;;;;;11.70;9.00;;;14.70;99.90;;;;;;5089138;28;20826;-68
2023/08/07 05:01:03;;;;;;;11.50;8.40;;;14.70;99.90;;;;;;5088589;28;20833;-67
2023/08/07 05:03:31;;;;;;;11.70;9.63;;;14.70;99.90;;;;;;5090471;28;20443;-68
2023/08/07 05:06:01;;;;;;;12.47;8.70;;;14.70;99.90;;;;;;5089227;28;20446;-68
2023/08/07 05:08:28;;;;;;;11.90;8.57;;;14.70;99.90;;;;;;5089593;28;20875;-67
2023/08/07 05:10:55;;;;;;;12.60;8.73;;;14.80;99.90;;;;;;5089199;28;20485;-67
2023/08/07 05:13:22;;;;;;;9.03;7.87;;;14.80;99.90;;;;;;5089369;28;20443;-67
2023/08/07 05:15:49;;;;;;;9.40;7.60;;;14.80;99.90;;;;;;5089142;28;20947;-67
2023/08/07 05:18:16;;;;;;;10.47;7.97;;;14.80;99.90;;;;;;5089552;28;20449;-67
2023/08/07 05:20:44;;;;;;;10.53;7.20;;;14.80;99.90;;;;;;5089228;28;20431;-67
2023/08/07 05:23:11;;;;;;;7.50;6.80;;;14.80;99.90;;;;;;5077853;28;20412;-68
2023/08/07 05:25:38;;;;;;;8.00;6.60;;;14.80;99.90;;;;;;5075573;28;20439;-67
2023/08/07 05:28:06;;;;;;;12.30;7.43;;;14.80;99.90;;;;;;5075608;28;20538;-67
2023/08/07 05:30:33;;;;;;;6.93;6.17;;;14.90;99.90;;;;;;5078003;28;20482;-69
2023/08/07 05:33:00;;;;;;;7.60;6.80;;;14.90;99.90;;;;;;5079464;28;20432;-68
2023/08/07 05:35:26;;;;;;;8.50;6.10;;;14.90;99.90;;;;;;5078007;28;20447;-67
2023/08/07 05:37:55;;;;;;;7.40;6.70;;;15.00;99.90;;;;;;5076328;28;20501;-68
2023/08/07 05:40:21;;;;;;;6.63;5.50;;;15.10;99.90;;;;;;5075293;28;20465;-68
2023/08/07 05:42:48;;;;;;;7.70;6.70;;;15.20;99.90;;;;;;5075497;28;20461;-67
2023/08/07 05:45:15;;;;;;;11.90;6.37;;;15.20;99.90;;;;;;5075935;28;20807;-68
2023/08/07 05:47:42;;;;;;;6.27;5.10;;;15.30;99.90;;;;;;5075344;28;20522;-67
2023/08/07 05:50:09;;;;;;;6.80;4.70;;;15.30;99.90;;;;;;5075766;28;20945;-68
2023/08/07 05:52:36;;;;;;;6.13;5.50;;;15.30;99.90;;;;;;5077797;28;20538;-68
2023/08/07 05:55:05;;;;;;;5.67;5.07;;;15.30;99.90;;;;;;5077741;28;20435;-67
2023/08/07 05:57:32;;;;;;;5.33;4.67;;;15.30;99.90;;;;;;5075343;28;20506;-69
2023/08/07 05:59:59;;;;;;;6.00;4.87;;;15.20;99.90;;;;;;5074961;28;20451;-68
2023/08/07 06:02:26;;;;;;;5.70;5.00;;;15.20;99.90;;;;;;5075906;28;20486;-68
2023/08/07 06:04:54;;;;;;;5.73;4.80;;;15.20;99.90;;;;;;5075243;28;20936;-67
2023/08/07 06:07:21;;;;;;;5.97;4.73;;;15.20;99.90;;;;;;5075518;28;20439;-67
2023/08/07 06:09:47;;;;;;;5.67;4.70;;;15.20;99.90;;;;;;5074872;28;20526;-69
2023/08/07 06:12:15;;;;;;;6.93;4.30;;;15.30;99.90;;;;;;5075166;28;20561;-64
2023/08/07 06:14:43;;;;;;;6.80;4.43;;;15.30;99.90;;;;;;5075466;28;20467;-67
2023/08/07 06:17:08;;;;;;;5.70;4.53;;;15.30;99.90;;;;;;5074922;28;20497;-68
2023/08/07 06:19:35;;;;;;;4.73;4.23;;;15.40;99.90;;;;;;5074835;28;20439;-66
2023/08/07 06:22:02;;;;;;;4.63;4.23;;;15.50;99.90;;;;;;5074096;28;20225;-66
2023/08/07 06:24:29;;;;;;;5.33;3.50;;;15.50;99.90;;;;;;5074613;28;20526;-68
2023/08/07 06:26:56;;;;;;;5.63;4.07;;;15.50;99.90;;;;;;5074178;28;21048;-68
2023/08/07 06:29:24;;;;;;;4.70;3.73;;;15.60;99.90;;;;;;5074123;28;20814;-68
2023/08/07 06:31:51;;;;;;;5.13;3.60;;;15.70;99.90;;;;;;5074818;28;20489;-67
2023/08/07 06:34:17;;;;;;;6.40;4.40;;;15.70;99.90;;;;;;5073450;28;20439;-68
2023/08/07 06:36:44;;;;;;;5.13;4.20;;;15.70;99.90;;;;;;5074171;28;20453;-67
2023/08/07 06:39:11;;;;;;;4.43;3.80;;;15.70;99.90;;;;;;5074718;28;20439;-67
2023/08/07 06:41:38;;;;;;;4.37;3.77;;;15.80;99.90;;;;;;5074233;28;20513;-67
2023/08/07 06:44:05;;;;;;;6.93;3.90;;;15.80;99.90;;;;;;5074746;28;20451;-67
2023/08/07 06:46:34;;;;;;;7.00;3.80;;;15.90;99.90;;;;;;5073939;28;20789;-68
2023/08/07 06:49:00;;;;;;;3.90;3.50;;;15.90;99.90;;;;;;5074568;28;20812;-67
2023/08/07 06:51:27;;;;;;;7.73;3.67;;;16.00;99.90;;;;;;5074794;28;20486;-67
2023/08/07 06:53:54;;;;;;;13.00;4.93;;;16.10;99.90;;;;;;5075887;28;20447;-65
2023/08/07 06:56:21;;;;;;;5.87;3.50;;;16.10;99.90;;;;;;5075070;28;20450;-67
2023/08/07 06:58:48;;;;;;;4.53;4.03;;;16.10;99.90;;;;;;5074240;28;20877;-66
2023/08/07 07:01:15;;;;;;;8.57;3.13;;;16.10;99.90;;;;;;5074630;28;20463;-66
2023/08/07 07:03:45;;;;;;;3.57;3.27;;;16.10;99.90;;;;;;5074711;28;20860;-66
2023/08/07 07:06:12;;;;;;;4.10;3.63;;;16.00;99.90;;;;;;5074809;28;20442;-66
2023/08/07 07:08:39;;;;;;;4.03;3.40;;;16.00;99.90;;;;;;5073710;28;20840;-65
2023/08/07 07:11:05;;;;;;;4.80;3.67;;;16.10;99.90;;;;;;5074214;28;21026;-65
2023/08/07 07:13:32;;;;;;;4.40;3.17;;;16.20;99.90;;;;;;5074086;28;20439;-65
2023/08/07 07:15:59;;;;;;;4.03;3.63;;;16.30;99.90;;;;;;5074220;28;20931;-66
2023/08/07 07:18:26;;;;;;;6.00;3.50;;;16.50;99.90;;;;;;5074337;28;20450;-66
2023/08/07 07:21:03;;;;;;;6.93;4.10;;;16.70;99.90;;;;;;5073222;28;20470;-66
2023/08/07 07:23:30;;;;;;;4.33;3.73;;;16.80;99.90;;;;;;5073325;28;20464;-66
2023/08/07 07:25:57;;;;;;;7.73;4.70;;;16.80;99.90;;;;;;5073402;28;20443;-66
2023/08/07 07:28:24;;;;;;;4.10;3.67;;;16.80;99.90;;;;;;5073952;28;20432;-67
2023/08/07 07:30:51;;;;;;;4.70;3.30;;;16.80;99.90;;;;;;5073764;28;20468;-68
2023/08/07 07:33:18;;;;;;;4.23;3.23;;;16.80;99.90;;;;;;5073810;28;20439;-68
2023/08/07 07:35:45;;;;;;;4.03;3.67;;;16.80;99.90;;;;;;5074447;28;20439;-68
2023/08/07 07:38:13;;;;;;;3.03;2.73;;;16.80;99.90;;;;;;5074003;28;20443;-66
2023/08/07 07:40:40;;;;;;;5.70;3.47;;;16.80;99.90;;;;;;5074013;28;20456;-67
2023/08/07 07:43:07;;;;;;;4.00;3.33;;;16.90;99.90;;;;;;5074092;28;20535;-67
2023/08/07 07:45:35;;;;;;;4.57;2.93;;;16.90;99.90;;;;;;5073840;28;20524;-67
2023/08/07 07:48:02;;;;;;;3.57;2.70;;;17.00;99.90;;;;;;5074004;28;20440;-67
2023/08/07 07:50:29;;;;;;;3.90;2.77;;;17.10;99.90;;;;;;5073924;28;20445;-67
2023/08/07 07:52:56;;;;;;;3.73;2.70;;;17.10;99.90;;;;;;5073244;28;20486;-68
2023/08/07 07:55:25;;;;;;;4.60;2.93;;;17.00;99.90;;;;;;5073574;28;20446;-68
2023/08/07 07:57:52;;;;;;;5.13;2.80;;;17.10;99.90;;;;;;5073147;28;20517;-68
2023/08/07 08:00:19;;;;;;;5.60;2.87;;;17.10;99.90;;;;;;5073156;28;20813;-67
2023/08/07 08:02:47;;;;;;;3.07;2.73;;;17.20;99.90;;;;;;5072830;28;20460;-68
2023/08/07 08:05:15;;;;;;;2.50;2.23;;;17.30;99.90;;;;;;5072888;28;20444;-67
2023/08/07 08:07:43;;;;;;;3.47;2.33;;;17.50;99.90;;;;;;5073224;28;20448;-68
2023/08/07 08:10:12;;;;;;;3.57;2.60;;;17.80;99.90;;;;;;5072982;28;20441;-67
2023/08/07 08:12:40;;;;;;;2.47;2.00;;;18.00;99.90;;;;;;5073282;28;20493;-68
2023/08/07 08:15:08;;;;;;;3.70;2.20;;;18.20;99.90;;;;;;5073114;28;20536;-67
2023/08/07 08:17:34;;;;;;;4.90;2.20;;;18.20;99.90;;;;;;5072918;28;20453;-68
2023/08/07 08:20:01;;;;;;;4.77;2.30;;;18.20;99.90;;;;;;5073065;28;20973;-67
2023/08/07 08:22:28;;;;;;;4.80;2.60;;;18.10;99.90;;;;;;5073058;28;20513;-67
2023/08/07 08:24:56;;;;;;;3.50;2.50;;;18.10;99.90;;;;;;5074000;28;20828;-67
2023/08/07 08:27:23;;;;;;;3.73;2.13;;;18.00;99.90;;;;;;5073708;28;20475;-67
2023/08/07 08:29:51;;;;;;;5.27;2.10;;;17.90;99.90;;;;;;5074341;28;20440;-68
2023/08/07 08:32:18;;;;;;;4.00;1.93;;;17.70;99.90;;;;;;5073332;28;20491;-67
2023/08/07 08:34:45;;;;;;;8.10;2.10;;;17.50;99.90;;;;;;5072987;28;20454;-66
2023/08/07 08:37:12;;;;;;;2.27;2.00;;;17.50;99.90;;;;;;5072734;28;20945;-67
2023/08/07 08:39:39;;;;;;;3.00;2.33;;;17.50;99.90;;;;;;5072750;28;20445;-67
2023/08/07 08:42:06;;;;;;;6.13;2.13;;;17.60;99.90;;;;;;5072918;28;20513;-68
2023/08/07 08:44:37;;;;;;;5.60;2.23;;;17.60;99.90;;;;;;5072628;28;20450;-67
2023/08/07 08:47:07;;;;;;;2.33;1.83;;;17.70;99.90;;;;;;5073030;28;20512;-68
2023/08/07 08:49:38;;;;;;;3.10;2.10;;;17.90;99.90;;;;;;5073094;28;20440;-68
2023/08/07 08:52:06;;;;;;;3.93;1.90;;;18.20;99.90;;;;;;5072909;28;20490;-67
2023/08/07 08:54:33;;;;;;;2.47;2.13;;;18.20;99.90;;;;;;5073035;28;20535;-67
2023/08/07 08:57:00;;;;;;;2.30;1.53;;;18.20;99.90;;;;;;5073703;28;20480;-68
2023/08/07 08:59:28;;;;;;;5.13;1.83;;;18.10;99.90;;;;;;5076769;28;20850;-67
2023/08/07 09:01:55;;;;;;;3.30;2.10;;;17.80;99.90;;;;;;5076525;28;21054;-68
2023/08/07 09:04:23;;;;;;;12.37;2.80;;;17.30;99.90;;;;;;5076786;28;20544;-67
2023/08/07 09:06:51;;;;;;;9.80;2.50;;;16.80;99.90;;;;;;5076766;28;20485;-65
2023/08/07 09:09:21;;;;;;;3.53;2.33;;;15.90;99.90;;;;;;5077328;28;20936;-65
2023/08/07 09:11:48;;;;;;;4.80;2.70;;;15.20;99.90;;;;;;5077238;28;20484;-67
2023/08/07 09:14:18;;;;;;;3.63;2.10;;;14.70;99.90;;;;;;5077807;28;20446;-66
2023/08/07 09:16:46;;;;;;;4.43;2.83;;;14.40;99.90;;;;;;5077459;28;20450;-68
2023/08/07 09:19:13;;;;;;;4.87;3.00;;;14.30;99.90;;;;;;5077438;28;20445;-69
2023/08/07 09:21:41;;;;;;;4.20;2.70;;;14.40;99.90;;;;;;5076974;28;20467;-70
2023/08/07 09:24:09;;;;;;;6.73;2.60;;;14.60;99.90;;;;;;5076713;28;20442;-70
2023/08/07 09:26:36;;;;;;;4.03;2.20;;;14.80;99.90;;;;;;5076320;28;20443;-71
2023/08/07 09:29:03;;;;;;;2.73;2.13;;;15.00;99.90;;;;;;5076810;28;20941;-72
2023/08/07 09:31:32;;;;;;;6.83;2.30;;;15.10;99.90;;;;;;5078015;28;20470;-72
2023/08/07 09:34:03;;;;;;;7.67;3.10;;;15.30;99.90;;;;;;5078949;28;20446;-71
2023/08/07 09:36:31;;;;;;;4.70;2.93;;;15.60;99.90;;;;;;5077467;28;20419;-72
2023/08/07 09:39:01;;;;;;;6.97;2.93;;;15.90;99.90;;;;;;5077470;28;20443;-71
2023/08/07 09:41:29;;;;;;;3.17;2.50;;;16.30;99.90;;;;;;5076831;28;20546;-71
2023/08/07 09:43:56;;;;;;;5.13;2.90;;;16.40;99.90;;;;;;5077292;28;20443;-69
2023/08/07 09:46:23;;;;;;;5.87;2.40;;;16.60;99.90;;;;;;5076284;28;20449;-69
2023/08/07 09:48:50;;;;;;;9.27;2.17;;;16.70;99.90;;;;;;5076874;28;20815;-69
2023/08/07 09:51:17;;;;;;;5.97;2.10;;;16.90;99.90;;;;;;5076265;28;20543;-70
2023/08/07 09:53:44;;;;;;;7.40;2.67;;;17.10;99.90;;;;;;5077498;28;20487;-69
2023/08/07 09:56:14;;;;;;;5.03;2.30;;;17.10;99.90;;;;;;5078109;28;20895;-69
2023/08/07 09:58:47;;;;;;;5.40;2.57;;;17.00;99.90;;;;;;5079186;28;20442;-71
2023/08/07 10:01:17;;;;;;;5.23;2.43;;;16.80;99.90;;;;;;5079951;28;20459;-72
2023/08/07 10:03:44;;;;;;;3.03;2.10;;;16.50;99.90;;;;;;5078664;28;20443;-72
2023/08/07 10:06:12;;;;;;;4.37;2.13;;;16.20;99.90;;;;;;5078394;28;20475;-72
2023/08/07 10:08:40;;;;;;;7.83;2.40;;;16.00;99.90;;;;;;5079788;28;20550;-73
2023/08/07 10:11:09;;;;;;;5.10;2.83;;;15.90;99.90;;;;;;5077621;28;20463;-73
2023/08/07 10:13:37;;;;;;;5.57;2.67;;;16.00;99.90;;;;;;5078678;28;20510;-71
2023/08/07 10:16:05;;;;;;;6.23;2.73;;;16.20;99.90;;;;;;5077364;28;20995;-73
2023/08/07 10:18:32;;;;;;;4.60;2.73;;;16.30;99.90;;;;;;5077828;28;20451;-72
2023/08/07 10:23:26;;;;;;;5.50;2.50;;;16.50;99.90;;;;;;5113597;22;21018;-62
2023/08/07 10:25:54;;;;;;;4.97;2.50;;;16.60;99.90;;;;;;5095276;28;20498;-61
2023/08/07 10:28:23;;;;;;;5.67;3.13;;;16.70;99.90;;;;;;5096297;28;20521;-61
2023/08/07 10:30:52;;;;;;;6.13;2.10;;;16.70;99.90;;;;;;5095186;28;20476;-63
2023/08/07 10:33:20;;;;;;;3.70;2.10;;;16.70;99.90;;;;;;5095521;28;20482;-62
2023/08/07 10:35:49;;;;;;;6.90;2.60;;;16.80;99.90;;;;;;5095325;28;20948;-62
2023/08/07 10:38:19;;;;;;;7.00;1.90;;;17.00;99.90;;;;;;5095752;28;20442;-61
2023/08/07 10:41:02;;;;;;;4.50;1.73;;;17.30;99.90;;;;;;5096158;28;20796;-62
2023/08/07 10:43:30;;;;;;;2.87;1.80;;;17.70;99.90;;;;;;5096061;28;20446;-62
2023/08/07 10:46:05;;;;;;;6.23;2.00;;;17.90;99.90;;;;;;5095331;28;20442;-61
2023/08/07 10:48:39;;;;;;;4.90;2.00;;;18.10;99.90;;;;;;5095377;28;20476;-62
2023/08/07 10:51:06;;;;;;;5.20;2.00;;;18.30;99.90;;;;;;5095137;28;20423;-61
2023/08/07 10:53:35;;;;;;;3.50;2.00;;;18.40;99.90;;;;;;5094655;28;20473;-61
2023/08/07 10:56:03;;;;;;;5.37;2.13;;;18.40;99.90;;;;;;5095068;28;20439;-61
2023/08/07 10:58:32;;;;;;;4.80;2.40;;;18.50;99.90;;;;;;5095005;28;20451;-61
2023/08/07 11:01:28;;;;;;;2.53;1.40;;;18.60;99.90;;;;;;5095240;28;20858;-61
2023/08/07 11:03:57;;;;;;;7.63;1.73;;;18.90;99.90;;;;;;5095123;28;20429;-63
2023/08/07 11:06:26;;;;;;;4.83;1.90;;;19.00;99.90;;;;;;5094863;28;20537;-62
2023/08/07 11:08:53;;;;;;;7.40;1.63;;;19.20;99.90;;;;;;5095365;28;20556;-60
2023/08/07 11:11:20;;;;;;;3.77;1.70;;;19.50;97.40;;;;;;5097462;28;20445;-62
2023/08/07 11:13:47;;;;;;;3.23;1.80;;;19.60;94.50;;;;;;5098749;28;20857;-60
2023/08/07 11:16:14;;;;;;;4.90;1.93;;;19.60;93.70;;;;;;5095701;28;20512;-62
2023/08/07 11:18:43;;;;;;;6.47;2.20;;;19.30;93.50;;;;;;5095649;28;20492;-62
2023/08/07 11:21:11;;;;;;;3.37;1.73;;;18.90;93.80;;;;;;5094889;28;20443;-61
2023/08/07 11:23:38;;;;;;;4.37;2.07;;;18.70;94.30;;;;;;5096828;28;20423;-61
2023/08/07 11:26:05;;;;;;;4.73;1.90;;;18.60;94.20;;;;;;5095605;28;20979;-61
2023/08/07 11:28:32;;;;;;;14.40;2.17;;;18.80;94.20;;;;;;5095770;28;20452;-62
2023/08/07 11:31:00;;;;;;;7.60;2.23;;;19.10;93.10;;;;;;5094956;28;20539;-60
2023/08/07 11:33:28;;;;;;;3.90;2.00;;;19.20;87.40;;;;;;5094077;28;20476;-61
2023/08/07 11:35:56;;;;;;;3.20;1.70;;;19.20;83.10;;;;;;5094572;28;20449;-62
2023/08/07 11:38:34;;;;;;;1.97;1.30;;;19.10;80.30;;;;;;5095498;28;20544;-63
2023/08/07 11:41:01;;;;;;;7.87;2.50;;;19.00;81.00;;;;;;5094741;28;20532;-62
2023/08/07 11:43:29;;;;;;;5.83;2.00;;;18.70;82.80;;;;;;5094793;28;20437;-63
2023/08/07 11:45:57;;;;;;;2.10;1.50;;;18.50;85.40;;;;;;5094137;28;20446;-60
2023/08/07 11:48:25;;;;;;;4.60;2.03;;;18.40;87.20;;;;;;5093601;28;20446;-61
2023/08/07 11:50:53;;;;;;;4.23;2.07;;;18.40;84.80;;;;;;5093875;28;20471;-63
2023/08/07 11:53:22;;;;;;;2.00;1.30;;;18.30;83.40;;;;;;5094371;28;20483;-60
2023/08/07 11:55:53;;;;;;;4.80;1.90;;;18.40;82.70;;;;;;5094050;28;20439;-61
2023/08/07 11:58:20;;;;;;;3.33;1.77;;;18.30;81.10;;;;;;5094865;28;20494;-60
2023/08/07 12:00:47;;;;;;;4.33;1.73;;;18.50;79.50;;;;;;5094662;28;20440;-58
2023/08/07 12:03:28;;;;;;;3.70;1.50;;;18.80;73.00;;;;;;5094404;28;20460;-61
2023/08/07 12:05:57;;;;;;;1.77;1.40;;;19.30;70.70;;;;;;5095645;28;20532;-62
2023/08/07 12:08:25;;;;;;;5.87;2.27;;;19.80;69.00;;;;;;5094992;28;20443;-62
2023/08/07 12:10:54;;;;;;;3.63;1.63;;;20.30;65.90;;;;;;5094319;28;20533;-61
2023/08/07 12:13:24;;;;;;;3.80;1.87;;;20.60;64.50;;;;;;5093751;28;20481;-62
2023/08/07 12:15:53;;;;;;;3.07;1.57;;;20.80;63.90;;;;;;5094394;28;20433;-61
2023/08/07 12:18:20;;;;;;;5.20;2.23;;;20.50;64.70;;;;;;5093705;28;20822;-61
2023/08/07 12:20:47;;;;;;;3.50;2.00;;;20.00;65.20;;;;;;5093414;28;20456;-62
2023/08/07 12:23:16;;;;;;;3.60;1.83;;;19.60;67.40;;;;;;5093580;28;20490;-61
2023/08/07 12:25:44;;;;;;;3.90;2.27;;;19.20;68.50;;;;;;5093239;28;20861;-60
2023/08/07 12:28:11;;;;;;;3.80;2.20;;;19.10;69.50;;;;;;5093453;28;20447;-61
2023/08/07 12:30:39;;;;;;;2.83;2.07;;;19.30;68.80;;;;;;5092696;28;20445;-61
2023/08/07 12:33:07;;;;;;;2.97;2.20;;;19.20;67.60;;;;;;5096088;28;20487;-61
2023/08/07 12:35:34;;;;;;;4.27;1.70;;;18.90;68.60;;;;;;5097737;28;20448;-61
2023/08/07 12:38:02;;;;;;;4.93;1.83;;;18.60;69.30;;;;;;5097759;28;20935;-63
2023/08/07 12:40:29;;;;;;;5.90;1.70;;;18.40;70.70;;;;;;5097298;28;20450;-62
2023/08/07 12:42:59;;;;;;;3.73;1.70;;;18.20;70.80;;;;;;5097051;28;20514;-63
2023/08/07 12:45:25;;;;;;;3.53;1.80;;;18.20;71.90;;;;;;5097456;28;20441;-61
2023/08/07 12:47:52;;;;;;;5.20;1.90;;;18.30;72.00;;;;;;5097054;28;20819;-60
2023/08/07 12:50:19;;;;;;;7.20;2.20;;;18.50;71.60;;;;;;5097222;28;20814;-63